createdAt,value
2018-07-19T00:00:47.079Z,100356
2018-07-19T00:01:52.544Z,100350
2018-07-19T00:02:58.015Z,100359
2018-07-19T00:04:04.637Z,100353
2018-07-19T00:05:12.819Z,100353
2018-07-19T00:06:20.834Z,100362
2018-07-19T00:07:26.102Z,100365
2018-07-19T00:08:30.963Z,100359
2018-07-19T00:09:37.636Z,100350
2018-07-19T00:10:45.782Z,100356
2018-07-19T00:11:50.967Z,100350
2018-07-19T00:12:56.647Z,100356
2018-07-19T00:14:02.362Z,100353
2018-07-19T00:15:09.095Z,100356
2018-07-19T00:16:16.284Z,100350
2018-07-19T00:17:21.475Z,100356
2018-07-19T00:18:27.735Z,100356
2018-07-19T00:19:33.851Z,100356
2018-07-19T00:20:40.974Z,100356
2018-07-19T00:21:49.041Z,100356
2018-07-19T00:22:54.201Z,100356
2018-07-19T00:23:58.813Z,100350
2018-07-19T00:25:05.464Z,100350
2018-07-19T00:26:12.131Z,100368
2018-07-19T00:27:20.116Z,100359
2018-07-19T00:28:25.673Z,100356
2018-07-19T00:29:31.179Z,100359
2018-07-19T00:30:36.872Z,100362
2018-07-19T00:31:41.642Z,100362
2018-07-19T00:32:48.771Z,100368
2018-07-19T00:33:54.677Z,100359
2018-07-19T00:35:00.606Z,100362
2018-07-19T00:36:06.850Z,100362
2018-07-19T00:37:13.584Z,100356
2018-07-19T00:38:20.399Z,100370
2018-07-19T00:39:40.776Z,100350
2018-07-19T00:40:46.019Z,100353
2018-07-19T00:41:51.179Z,100359
2018-07-19T00:42:57.482Z,100368
2018-07-19T00:44:04.189Z,100353
2018-07-19T00:45:10.010Z,100362
2018-07-19T00:46:15.427Z,100359
2018-07-19T00:47:20.109Z,100356
2018-07-19T00:48:40.501Z,100350
2018-07-19T00:49:46.066Z,100353
2018-07-19T00:50:52.444Z,100353
2018-07-19T00:52:00.072Z,100365
2018-07-19T00:53:05.580Z,100350
2018-07-19T00:54:11.108Z,100356
2018-07-19T00:55:16.516Z,100362
2018-07-19T00:56:21.674Z,100359
2018-07-19T00:57:30.115Z,100356
2018-07-19T00:58:35.405Z,100370
2018-07-19T00:59:40.625Z,100359
2018-07-19T01:00:46.030Z,100353
2018-07-19T01:01:51.426Z,100359
2018-07-19T01:02:59.007Z,100353
2018-07-19T01:04:05.996Z,100353
2018-07-19T01:05:10.928Z,100350
2018-07-19T01:06:15.803Z,100350
2018-07-19T01:07:21.603Z,100350
2018-07-19T01:08:29.166Z,100353
2018-07-19T01:09:37.392Z,100356
2018-07-19T01:10:42.874Z,100350
2018-07-19T01:11:48.092Z,100356
2018-07-19T01:12:54.929Z,100359
2018-07-19T01:14:01.748Z,100356
2018-07-19T01:15:06.376Z,100362
2018-07-19T01:16:11.541Z,100350
2018-07-19T01:17:17.655Z,100347
2018-07-19T01:18:26.313Z,100353
2018-07-19T01:19:33.917Z,100365
2018-07-19T01:20:39.506Z,100359
2018-07-19T01:21:44.957Z,100368
2018-07-19T01:22:51.442Z,100362
2018-07-19T01:23:59.620Z,100362
2018-07-19T01:25:05.012Z,100356
2018-07-19T01:26:10.485Z,100353
2018-07-19T01:27:17.308Z,100359
2018-07-19T01:28:25.567Z,100350
2018-07-19T01:29:30.779Z,100350
2018-07-19T01:30:36.445Z,100347
2018-07-19T01:31:41.651Z,100353
2018-07-19T01:32:48.245Z,100344
2018-07-19T01:33:55.993Z,100347
2018-07-19T01:35:00.850Z,100350
2018-07-19T01:36:06.086Z,100350
2018-07-19T01:37:10.969Z,100356
2018-07-19T01:38:16.423Z,100353
2018-07-19T01:39:22.673Z,100353
2018-07-19T01:40:30.039Z,100353
2018-07-19T01:41:36.441Z,100347
2018-07-19T01:42:41.709Z,100353
2018-07-19T01:43:48.465Z,100350
2018-07-19T01:44:54.474Z,100350
2018-07-19T01:46:02.348Z,100353
2018-07-19T01:47:06.933Z,100350
2018-07-19T01:48:13.175Z,100353
2018-07-19T01:49:21.190Z,100350
2018-07-19T01:50:28.503Z,100356
2018-07-19T01:51:33.789Z,100341
2018-07-19T01:52:39.666Z,100347
2018-07-19T01:53:46.385Z,100350
2018-07-19T01:54:53.357Z,100350
2018-07-19T01:55:58.784Z,100353
2018-07-19T01:57:03.830Z,100356
2018-07-19T01:58:11.572Z,100359
2018-07-19T01:59:17.946Z,100362
2018-07-19T02:00:23.401Z,100356
2018-07-19T02:01:43.744Z,100362
2018-07-19T02:02:49.995Z,100365
2018-07-19T02:03:56.342Z,100362
2018-07-19T02:05:01.528Z,100359
2018-07-19T02:06:06.677Z,100356
2018-07-19T02:07:13.718Z,100353
2018-07-19T02:08:22.165Z,100356
2018-07-19T02:09:28.251Z,100368
2018-07-19T02:10:33.400Z,100365
2018-07-19T02:11:39.700Z,100368
2018-07-19T02:12:46.192Z,100368
2018-07-19T02:13:53.314Z,100356
2018-07-19T02:14:58.551Z,100362
2018-07-19T02:16:03.977Z,100362
2018-07-19T02:17:10.237Z,100359
2018-07-19T02:18:18.673Z,100365
2018-07-19T02:19:23.937Z,100365
2018-07-19T02:20:29.189Z,100368
2018-07-19T02:21:35.521Z,100365
2018-07-19T02:22:42.457Z,100370
2018-07-19T02:23:47.614Z,100379
2018-07-19T02:24:53.015Z,100379
2018-07-19T02:25:59.027Z,100370
2018-07-19T02:27:05.931Z,100379
2018-07-19T02:28:10.820Z,100379
2018-07-19T02:29:16.006Z,100376
2018-07-19T02:30:22.154Z,100379
2018-07-19T02:31:29.472Z,100382
2018-07-19T02:32:34.343Z,100373
2018-07-19T02:33:39.984Z,100379
2018-07-19T02:34:46.894Z,100373
2018-07-19T02:35:54.533Z,100370
2018-07-19T02:36:59.996Z,100370
2018-07-19T02:38:05.142Z,100379
2018-07-19T02:39:11.275Z,100376
2018-07-19T02:40:19.532Z,100379
2018-07-19T02:41:24.138Z,100388
2018-07-19T02:42:29.866Z,100373
2018-07-19T02:43:35.013Z,100379
2018-07-19T02:44:42.839Z,100379
2018-07-19T02:45:48.313Z,100370
2018-07-19T02:46:53.165Z,100373
2018-07-19T02:47:59.370Z,100376
2018-07-19T02:49:07.509Z,100376
2018-07-19T02:50:13.595Z,100370
2018-07-19T02:51:19.023Z,100379
2018-07-19T02:52:25.066Z,100376
2018-07-19T02:53:32.865Z,100385
2018-07-19T02:54:40.216Z,100379
2018-07-19T02:55:45.380Z,100388
2018-07-19T02:56:51.404Z,100382
2018-07-19T02:57:57.490Z,100376
2018-07-19T02:59:03.861Z,100391
2018-07-19T03:00:09.019Z,100376
2018-07-19T03:01:14.153Z,100385
2018-07-19T03:02:20.735Z,100391
2018-07-19T03:03:28.970Z,100391
2018-07-19T03:04:36.173Z,100391
2018-07-19T03:05:41.652Z,100385
2018-07-19T03:06:47.080Z,100385
2018-07-19T03:07:53.751Z,100388
2018-07-19T03:09:01.685Z,100385
2018-07-19T03:10:06.294Z,100385
2018-07-19T03:11:11.475Z,100385
2018-07-19T03:12:18.068Z,100382
2018-07-19T03:13:26.576Z,100385
2018-07-19T03:14:31.747Z,100388
2018-07-19T03:15:37.051Z,100376
2018-07-19T03:16:42.687Z,100388
2018-07-19T03:17:49.955Z,100391
2018-07-19T03:18:55.245Z,100391
2018-07-19T03:20:00.395Z,100376
2018-07-19T03:21:05.031Z,100394
2018-07-19T03:22:12.980Z,100388
2018-07-19T03:23:18.825Z,100385
2018-07-19T03:24:23.988Z,100385
2018-07-19T03:25:31.269Z,100382
2018-07-19T03:26:38.731Z,100391
2018-07-19T03:27:46.169Z,100388
2018-07-19T03:28:51.316Z,100385
2018-07-19T03:29:56.179Z,100388
2018-07-19T03:31:03.434Z,100382
2018-07-19T03:32:10.195Z,100385
2018-07-19T03:33:15.646Z,100388
2018-07-19T03:34:20.816Z,100388
2018-07-19T03:35:26.263Z,100394
2018-07-19T03:36:33.694Z,100382
2018-07-19T03:37:38.555Z,100382
2018-07-19T03:38:43.772Z,100376
2018-07-19T03:39:50.672Z,100376
2018-07-19T03:40:57.892Z,100382
2018-07-19T03:42:02.480Z,100376
2018-07-19T03:43:07.820Z,100376
2018-07-19T03:44:13.071Z,100379
2018-07-19T03:45:20.455Z,100373
2018-07-19T03:46:26.139Z,100370
2018-07-19T03:47:31.835Z,100370
2018-07-19T03:48:38.260Z,100370
2018-07-19T03:49:45.903Z,100382
2018-07-19T03:50:51.060Z,100379
2018-07-19T03:51:56.554Z,100373
2018-07-19T03:53:02.046Z,100385
2018-07-19T03:54:07.233Z,100373
2018-07-19T03:55:12.397Z,100376
2018-07-19T03:56:18.684Z,100373
2018-07-19T03:57:24.744Z,100379
2018-07-19T03:58:33.114Z,100382
2018-07-19T03:59:38.289Z,100376
2018-07-19T04:00:43.956Z,100391
2018-07-19T04:01:49.656Z,100382
2018-07-19T04:02:57.035Z,100376
2018-07-19T04:04:02.875Z,100373
2018-07-19T04:05:08.513Z,100370
2018-07-19T04:06:14.962Z,100388
2018-07-19T04:07:21.975Z,100382
2018-07-19T04:08:27.164Z,100376
2018-07-19T04:09:32.951Z,100382
2018-07-19T04:10:39.517Z,100388
2018-07-19T04:11:46.745Z,100388
2018-07-19T04:12:51.765Z,100388
2018-07-19T04:13:57.009Z,100385
2018-07-19T04:15:02.450Z,100388
2018-07-19T04:16:08.045Z,100379
2018-07-19T04:17:15.055Z,100382
2018-07-19T04:18:20.482Z,100385
2018-07-19T04:19:26.227Z,100382
2018-07-19T04:20:32.241Z,100370
2018-07-19T04:21:40.091Z,100376
2018-07-19T04:22:47.361Z,100379
2018-07-19T04:23:52.563Z,100396
2018-07-19T04:24:58.380Z,100384
2018-07-19T04:26:04.257Z,100379
2018-07-19T04:27:11.692Z,100381
2018-07-19T04:28:16.836Z,100390
2018-07-19T04:29:22.339Z,100379
2018-07-19T04:30:27.912Z,100381
2018-07-19T04:31:34.426Z,100384
2018-07-19T04:32:40.429Z,100378
2018-07-19T04:33:45.859Z,100378
2018-07-19T04:34:51.031Z,100373
2018-07-19T04:35:57.717Z,100390
2018-07-19T04:37:05.511Z,100375
2018-07-19T04:38:13.321Z,100387
2018-07-19T04:39:19.110Z,100387
2018-07-19T04:40:24.809Z,100378
2018-07-19T04:41:31.063Z,100387
2018-07-19T04:42:39.543Z,100387
2018-07-19T04:43:45.074Z,100375
2018-07-19T04:44:49.934Z,100375
2018-07-19T04:45:55.595Z,100381
2018-07-19T04:47:01.909Z,100381
2018-07-19T04:48:09.810Z,100384
2018-07-19T04:49:15.988Z,100375
2018-07-19T04:50:20.951Z,100390
2018-07-19T04:51:41.244Z,100369
2018-07-19T04:52:45.571Z,100384
2018-07-19T04:53:52.770Z,100381
2018-07-19T04:54:57.871Z,100378
2018-07-19T04:56:03.124Z,100381
2018-07-19T04:57:08.368Z,100384
2018-07-19T04:58:16.051Z,100381
2018-07-19T04:59:21.895Z,100387
2018-07-19T05:00:26.965Z,100378
2018-07-19T05:01:33.087Z,100381
2018-07-19T05:02:40.004Z,100375
2018-07-19T05:03:47.367Z,100390
2018-07-19T05:04:52.834Z,100387
2018-07-19T05:05:57.785Z,100384
2018-07-19T05:07:03.549Z,100375
2018-07-19T05:08:11.566Z,100384
2018-07-19T05:09:18.745Z,100387
2018-07-19T05:10:23.882Z,100387
2018-07-19T05:11:29.057Z,100387
2018-07-19T05:12:35.654Z,100384
2018-07-19T05:13:43.607Z,100378
2018-07-19T05:14:48.481Z,100387
2018-07-19T05:15:53.991Z,100384
2018-07-19T05:16:59.767Z,100384
2018-07-19T05:18:06.312Z,100387
2018-07-19T05:19:13.359Z,100381
2018-07-19T05:20:18.816Z,100387
2018-07-19T05:21:24.378Z,100387
2018-07-19T05:22:30.430Z,100381
2018-07-19T05:23:36.797Z,100381
2018-07-19T05:24:44.616Z,100384
2018-07-19T05:25:49.885Z,100392
2018-07-19T05:26:55.031Z,100395
2018-07-19T05:28:00.974Z,100395
2018-07-19T05:29:07.334Z,100389
2018-07-19T05:30:13.337Z,100398
2018-07-19T05:31:18.766Z,100395
2018-07-19T05:32:24.529Z,100398
2018-07-19T05:33:32.557Z,100395
2018-07-19T05:34:40.436Z,100386
2018-07-19T05:35:46.056Z,100392
2018-07-19T05:36:51.793Z,100383
2018-07-19T05:37:58.011Z,100383
2018-07-19T05:39:03.439Z,100392
2018-07-19T05:40:08.954Z,100389
2018-07-19T05:41:13.829Z,100389
2018-07-19T05:42:19.358Z,100398
2018-07-19T05:43:26.412Z,100383
2018-07-19T05:44:33.365Z,100395
2018-07-19T05:45:41.457Z,100392
2018-07-19T05:46:46.614Z,100392
2018-07-19T05:47:51.767Z,100392
2018-07-19T05:48:57.350Z,100386
2018-07-19T05:50:04.091Z,100395
2018-07-19T05:51:11.267Z,100395
2018-07-19T05:52:16.420Z,100392
2018-07-19T05:53:22.023Z,100383
2018-07-19T05:54:27.509Z,100380
2018-07-19T05:55:34.648Z,100392
2018-07-19T05:56:39.520Z,100383
2018-07-19T05:57:44.909Z,100383
2018-07-19T05:58:51.325Z,100386
2018-07-19T05:59:58.590Z,100383
2018-07-19T06:01:06.250Z,100375
2018-07-19T06:02:11.403Z,100389
2018-07-19T06:03:17.700Z,100383
2018-07-19T06:04:24.402Z,100380
2018-07-19T06:05:31.005Z,100392
2018-07-19T06:06:36.755Z,100392
2018-07-19T06:07:42.907Z,100392
2018-07-19T06:08:50.493Z,100386
2018-07-19T06:09:57.753Z,100392
2018-07-19T06:11:02.620Z,100386
2018-07-19T06:12:07.799Z,100386
2018-07-19T06:13:13.796Z,100389
2018-07-19T06:14:19.091Z,100404
2018-07-19T06:15:27.106Z,100380
2018-07-19T06:16:31.683Z,100395
2018-07-19T06:17:36.598Z,100386
2018-07-19T06:18:42.706Z,100386
2018-07-19T06:19:48.632Z,100392
2018-07-19T06:20:53.799Z,100389
2018-07-19T06:22:01.684Z,100386
2018-07-19T06:23:06.870Z,100377
2018-07-19T06:24:12.586Z,100383
2018-07-19T06:25:20.709Z,100386
2018-07-19T06:26:25.906Z,100389
2018-07-19T06:27:32.116Z,100372
2018-07-19T06:28:38.288Z,100383
2018-07-19T06:29:45.816Z,100380
2018-07-19T06:30:51.211Z,100383
2018-07-19T06:31:57.536Z,100377
2018-07-19T06:33:02.412Z,100386
2018-07-19T06:34:06.985Z,100383
2018-07-19T06:35:11.847Z,100380
2018-07-19T06:36:17.475Z,100374
2018-07-19T06:37:25.611Z,100383
2018-07-19T06:38:30.801Z,100392
2018-07-19T06:39:37.541Z,100383
2018-07-19T06:40:44.027Z,100386
2018-07-19T06:41:52.755Z,100383
2018-07-19T06:42:58.456Z,100383
2018-07-19T06:44:03.556Z,100374
2018-07-19T06:45:10.590Z,100377
2018-07-19T06:46:15.552Z,100380
2018-07-19T06:47:20.723Z,100380
2018-07-19T06:48:27.320Z,100386
2018-07-19T06:49:34.135Z,100383
2018-07-19T06:50:42.045Z,100389
2018-07-19T06:51:47.308Z,100386
2018-07-19T06:52:53.462Z,100377
2018-07-19T06:53:59.613Z,100386
2018-07-19T06:55:06.173Z,100377
2018-07-19T06:56:11.426Z,100386
2018-07-19T06:57:17.493Z,100371
2018-07-19T06:58:23.811Z,100386
2018-07-19T06:59:30.573Z,100380
2018-07-19T07:00:36.062Z,100392
2018-07-19T07:01:40.644Z,100374
2018-07-19T07:02:47.186Z,100395
2018-07-19T07:03:53.589Z,100389
2018-07-19T07:04:58.742Z,100383
2018-07-19T07:06:04.222Z,100386
2018-07-19T07:07:10.362Z,100386
2018-07-19T07:08:18.124Z,100392
2018-07-19T07:09:23.055Z,100383
2018-07-19T07:10:29.035Z,100380
2018-07-19T07:11:35.253Z,100392
2018-07-19T07:12:43.636Z,100383
2018-07-19T07:13:49.113Z,100383
2018-07-19T07:14:54.582Z,100386
2018-07-19T07:16:01.626Z,100389
2018-07-19T07:17:08.213Z,100386
2018-07-19T07:18:13.367Z,100392
2018-07-19T07:19:18.556Z,100395
2018-07-19T07:20:25.219Z,100380
2018-07-19T07:21:31.383Z,100377
2018-07-19T07:22:36.331Z,100386
2018-07-19T07:23:41.843Z,100389
2018-07-19T07:24:48.389Z,100392
2018-07-19T07:25:56.357Z,100395
2018-07-19T07:27:00.949Z,100383
2018-07-19T07:28:06.359Z,100395
2018-07-19T07:29:12.676Z,100386
2018-07-19T07:30:20.009Z,100386
2018-07-19T07:31:25.402Z,100380
2018-07-19T07:32:30.910Z,100380
2018-07-19T07:33:37.720Z,100395
2018-07-19T07:34:44.997Z,100395
2018-07-19T07:35:51.426Z,100386
2018-07-19T07:36:57.022Z,100383
2018-07-19T07:38:03.338Z,100389
2018-07-19T07:39:10.191Z,100389
2018-07-19T07:40:15.909Z,100389
2018-07-19T07:41:22.594Z,100394
2018-07-19T07:42:28.197Z,100386
2018-07-19T07:43:34.102Z,100392
2018-07-19T07:44:39.551Z,100392
2018-07-19T07:45:45.991Z,100392
2018-07-19T07:46:51.434Z,100386
2018-07-19T07:47:56.305Z,100397
2018-07-19T07:49:01.475Z,100400
2018-07-19T07:50:06.829Z,100389
2018-07-19T07:51:12.247Z,100389
2018-07-19T07:52:19.617Z,100397
2018-07-19T07:53:25.171Z,100392
2018-07-19T07:54:30.971Z,100397
2018-07-19T07:55:37.602Z,100406
2018-07-19T07:56:45.408Z,100392
2018-07-19T07:57:51.331Z,100392
2018-07-19T07:58:56.470Z,100400
2018-07-19T08:00:02.629Z,100392
2018-07-19T08:01:08.426Z,100400
2018-07-19T08:02:16.433Z,100409
2018-07-19T08:03:21.596Z,100392
2018-07-19T08:04:26.910Z,100392
2018-07-19T08:05:32.974Z,100406
2018-07-19T08:06:41.262Z,100400
2018-07-19T08:07:46.576Z,100400
2018-07-19T08:08:52.098Z,100403
2018-07-19T08:09:58.560Z,100394
2018-07-19T08:11:05.424Z,100394
2018-07-19T08:12:10.645Z,100397
2018-07-19T08:13:16.921Z,100392
2018-07-19T08:14:24.061Z,100403
2018-07-19T08:15:29.460Z,100400
2018-07-19T08:16:34.927Z,100403
2018-07-19T08:17:40.257Z,100400
2018-07-19T08:18:47.371Z,100400
2018-07-19T08:19:52.818Z,100394
2018-07-19T08:20:57.793Z,100409
2018-07-19T08:22:02.357Z,100400
2018-07-19T08:23:09.683Z,100391
2018-07-19T08:24:15.137Z,100400
2018-07-19T08:25:20.544Z,100406
2018-07-19T08:26:26.411Z,100403
2018-07-19T08:27:33.057Z,100412
2018-07-19T08:28:38.556Z,100400
2018-07-19T08:29:44.111Z,100391
2018-07-19T08:30:50.048Z,100403
2018-07-19T08:31:58.224Z,100397
2018-07-19T08:33:03.909Z,100397
2018-07-19T08:34:09.314Z,100397
2018-07-19T08:35:14.702Z,100397
2018-07-19T08:36:23.166Z,100400
2018-07-19T08:37:29.436Z,100394
2018-07-19T08:38:34.594Z,100397
2018-07-19T08:39:39.769Z,100400
2018-07-19T08:40:47.330Z,100406
2018-07-19T08:41:53.288Z,100389
2018-07-19T08:42:59.437Z,100397
2018-07-19T08:44:05.821Z,100403
2018-07-19T08:45:12.578Z,100394
2018-07-19T08:46:18.352Z,100389
2018-07-19T08:47:23.791Z,100386
2018-07-19T08:48:30.017Z,100391
2018-07-19T08:49:38.278Z,100394
2018-07-19T08:50:43.435Z,100383
2018-07-19T08:51:48.830Z,100386
2018-07-19T08:52:55.479Z,100391
2018-07-19T08:54:02.672Z,100389
2018-07-19T08:55:08.421Z,100389
2018-07-19T08:56:13.653Z,100383
2018-07-19T08:57:20.000Z,100386
2018-07-19T08:58:42.654Z,100383
2018-07-19T08:59:50.590Z,100383
2018-07-19T09:00:56.420Z,100386
2018-07-19T09:02:01.904Z,100391
2018-07-19T09:03:07.040Z,100377
2018-07-19T09:04:14.365Z,100386
2018-07-19T09:05:20.137Z,100377
2018-07-19T09:06:26.014Z,100383
2018-07-19T09:07:31.866Z,100383
2018-07-19T09:08:39.203Z,100377
2018-07-19T09:09:46.521Z,100365
2018-07-19T09:10:51.784Z,100386
2018-07-19T09:11:57.096Z,100374
2018-07-19T09:13:03.600Z,100371
2018-07-19T09:14:09.349Z,100374
2018-07-19T09:15:14.459Z,100377
2018-07-19T09:16:19.608Z,100380
2018-07-19T09:17:25.036Z,100383
2018-07-19T09:18:31.919Z,100380
2018-07-19T09:19:39.559Z,100374
2018-07-19T09:20:44.630Z,100374
2018-07-19T09:21:50.492Z,100377
2018-07-19T09:22:55.243Z,100368
2018-07-19T09:24:01.988Z,100371
2018-07-19T09:25:09.679Z,100368
2018-07-19T09:26:14.831Z,100374
2018-07-19T09:27:20.262Z,100368
2018-07-19T09:28:27.116Z,100368
2018-07-19T09:29:35.103Z,100365
2018-07-19T09:30:40.880Z,100362
2018-07-19T09:31:45.758Z,100374
2018-07-19T09:32:52.235Z,100368
2018-07-19T09:33:59.046Z,100374
2018-07-19T09:35:07.069Z,100380
2018-07-19T09:36:12.233Z,100368
2018-07-19T09:37:17.626Z,100371
2018-07-19T09:38:24.010Z,100362
2018-07-19T09:39:32.772Z,100368
2018-07-19T09:40:40.975Z,100360
2018-07-19T09:41:45.774Z,100357
2018-07-19T09:42:51.776Z,100362
2018-07-19T09:43:56.462Z,100362
2018-07-19T09:45:02.521Z,100351
2018-07-19T09:46:07.372Z,100342
2018-07-19T09:47:12.817Z,100360
2018-07-19T09:48:18.524Z,100360
2018-07-19T09:49:25.413Z,100348
2018-07-19T09:50:30.646Z,100354
2018-07-19T09:51:36.332Z,100351
2018-07-19T09:52:42.064Z,100357
2018-07-19T09:53:48.063Z,100354
2018-07-19T09:54:55.500Z,100357
2018-07-19T09:56:00.231Z,100360
2018-07-19T09:57:05.666Z,100362
2018-07-19T09:58:12.170Z,100351
2018-07-19T09:59:20.796Z,100362
2018-07-19T10:00:41.808Z,100357
2018-07-19T10:01:46.773Z,100357
2018-07-19T10:02:52.337Z,100345
2018-07-19T10:03:58.326Z,100348
2018-07-19T10:05:05.315Z,100357
2018-07-19T10:06:12.180Z,100359
2018-07-19T10:07:17.720Z,100362
2018-07-19T10:08:22.944Z,100357
2018-07-19T10:09:28.965Z,100357
2018-07-19T10:10:35.971Z,100368
2018-07-19T10:11:43.357Z,100351
2018-07-19T10:12:48.823Z,100357
2018-07-19T10:13:53.705Z,100351
2018-07-19T10:15:00.307Z,100365
2018-07-19T10:16:07.787Z,100359
2018-07-19T10:17:13.986Z,100360
2018-07-19T10:18:19.351Z,100354
2018-07-19T10:19:24.519Z,100354
2018-07-19T10:20:29.996Z,100357
2018-07-19T10:21:37.687Z,100351
2018-07-19T10:22:43.550Z,100351
2018-07-19T10:23:48.996Z,100357
2018-07-19T10:24:54.566Z,100345
2018-07-19T10:26:00.696Z,100351
2018-07-19T10:27:06.915Z,100348
2018-07-19T10:28:13.103Z,100345
2018-07-19T10:29:18.565Z,100345
2018-07-19T10:30:23.922Z,100351
2018-07-19T10:31:30.654Z,100348
2018-07-19T10:32:37.940Z,100348
2018-07-19T10:33:45.557Z,100354
2018-07-19T10:34:50.880Z,100348
2018-07-19T10:35:55.766Z,100357
2018-07-19T10:37:01.826Z,100351
2018-07-19T10:38:07.512Z,100348
2018-07-19T10:39:12.671Z,100345
2018-07-19T10:40:18.461Z,100342
2018-07-19T10:41:23.249Z,100345
2018-07-19T10:42:30.069Z,100348
2018-07-19T10:43:37.391Z,100342
2018-07-19T10:44:44.848Z,100342
2018-07-19T10:45:50.610Z,100339
2018-07-19T10:46:55.714Z,100337
2018-07-19T10:48:00.859Z,100345
2018-07-19T10:49:05.689Z,100342
2018-07-19T10:50:10.553Z,100339
2018-07-19T10:51:15.803Z,100337
2018-07-19T10:52:20.946Z,100335
2018-07-19T10:53:26.373Z,100342
2018-07-19T10:54:31.553Z,100337
2018-07-19T10:55:36.712Z,100342
2018-07-19T10:56:41.854Z,100337
2018-07-19T10:57:47.564Z,100335
2018-07-19T10:58:52.453Z,100342
2018-07-19T10:59:57.878Z,100335
2018-07-19T11:01:03.307Z,100337
2018-07-19T11:02:08.212Z,100340
2018-07-19T11:03:13.378Z,100332
2018-07-19T11:04:19.074Z,100337
2018-07-19T11:05:24.711Z,100340
2018-07-19T11:06:29.835Z,100343
2018-07-19T11:07:35.302Z,100332
2018-07-19T11:08:40.823Z,100337
2018-07-19T11:09:46.930Z,100326
2018-07-19T11:10:52.767Z,100332
2018-07-19T11:11:58.234Z,100332
2018-07-19T11:13:03.380Z,100332
2018-07-19T11:14:08.529Z,100323
2018-07-19T11:15:13.743Z,100326
2018-07-19T11:16:19.418Z,100317
2018-07-19T11:17:24.874Z,100314
2018-07-19T11:18:30.556Z,100309
2018-07-19T11:19:35.133Z,100314
2018-07-19T11:20:40.310Z,100312
2018-07-19T11:21:46.031Z,100309
2018-07-19T11:22:51.179Z,100312
2018-07-19T11:23:55.761Z,100312
2018-07-19T11:25:01.227Z,100314
2018-07-19T11:26:06.044Z,100303
2018-07-19T11:27:10.975Z,100314
2018-07-19T11:28:16.776Z,100309
2018-07-19T11:29:21.436Z,100312
2018-07-19T11:30:27.404Z,100309
2018-07-19T11:31:33.751Z,100306
2018-07-19T11:32:38.911Z,100309
2018-07-19T11:33:44.590Z,100303
2018-07-19T11:34:50.080Z,100303
2018-07-19T11:35:55.456Z,100306
2018-07-19T11:37:00.685Z,100300
2018-07-19T11:38:06.109Z,100300
2018-07-19T11:39:11.265Z,100297
2018-07-19T11:40:16.962Z,100300
2018-07-19T11:41:22.389Z,100306
2018-07-19T11:42:27.931Z,100303
2018-07-19T11:43:33.425Z,100288
2018-07-19T11:44:38.903Z,100306
2018-07-19T11:45:44.155Z,100303
2018-07-19T11:46:49.610Z,100291
2018-07-19T11:47:54.533Z,100291
2018-07-19T11:48:59.968Z,100287
2018-07-19T11:50:04.902Z,100303
2018-07-19T11:51:10.251Z,100294
2018-07-19T11:52:15.792Z,100288
2018-07-19T11:53:20.906Z,100284
2018-07-19T11:54:41.284Z,100291
2018-07-19T11:55:46.427Z,100291
2018-07-19T11:56:51.683Z,100287
2018-07-19T11:57:57.115Z,100291
2018-07-19T11:59:02.185Z,100281
2018-07-19T12:00:06.498Z,100294
2018-07-19T12:01:11.895Z,100278
2018-07-19T12:02:16.476Z,100281
2018-07-19T12:03:21.952Z,100291
2018-07-19T12:04:27.687Z,100281
2018-07-19T12:05:32.943Z,100287
2018-07-19T12:06:38.353Z,100275
2018-07-19T12:07:43.783Z,100281
2018-07-19T12:08:48.957Z,100278
2018-07-19T12:09:54.291Z,100269
2018-07-19T12:10:59.784Z,100278
2018-07-19T12:12:04.764Z,100269
2018-07-19T12:13:10.284Z,100269
2018-07-19T12:14:15.455Z,100269
2018-07-19T12:15:20.952Z,100284
2018-07-19T12:16:41.463Z,100278
2018-07-19T12:17:46.891Z,100275
2018-07-19T12:18:51.204Z,100275
2018-07-19T12:19:56.639Z,100278
2018-07-19T12:21:00.648Z,100281
2018-07-19T12:22:05.372Z,100272
2018-07-19T12:23:10.872Z,100278
2018-07-19T12:24:16.297Z,100272
2018-07-19T12:25:22.008Z,100269
2018-07-19T12:26:27.438Z,100269
2018-07-19T12:27:32.941Z,100269
2018-07-19T12:28:38.142Z,100269
2018-07-19T12:29:43.056Z,100263
2018-07-19T12:30:48.828Z,100266
2018-07-19T12:31:53.699Z,100263
2018-07-19T12:32:58.848Z,100258
2018-07-19T12:34:04.054Z,100261
2018-07-19T12:35:09.198Z,100263
2018-07-19T12:36:14.642Z,100261
2018-07-19T12:37:19.762Z,100258
2018-07-19T12:38:24.946Z,100263
2018-07-19T12:39:30.588Z,100261
2018-07-19T12:40:35.735Z,100252
2018-07-19T12:41:40.388Z,100261
2018-07-19T12:42:46.103Z,100258
2018-07-19T12:43:51.325Z,100261
2018-07-19T12:44:56.879Z,100255
2018-07-19T12:46:02.659Z,100263
2018-07-19T12:47:08.132Z,100252
2018-07-19T12:48:13.001Z,100249
2018-07-19T12:49:18.151Z,100249
2018-07-19T12:50:23.303Z,100240
2018-07-19T12:51:28.576Z,100261
2018-07-19T12:52:33.741Z,100252
2018-07-19T12:53:39.256Z,100255
2018-07-19T12:54:44.386Z,100249
2018-07-19T12:55:49.453Z,100234
2018-07-19T12:56:54.678Z,100243
2018-07-19T12:58:00.466Z,100243
2018-07-19T12:59:05.611Z,100252
2018-07-19T13:00:11.197Z,100246
2018-07-19T13:01:17.046Z,100249
2018-07-19T13:02:22.482Z,100246
2018-07-19T13:03:28.303Z,100255
2018-07-19T13:04:33.484Z,100249
2018-07-19T13:05:38.939Z,100252
2018-07-19T13:06:43.484Z,100258
2018-07-19T13:07:48.674Z,100252
2018-07-19T13:08:54.146Z,100252
2018-07-19T13:09:59.767Z,100258
2018-07-19T13:11:04.658Z,100255
2018-07-19T13:12:09.873Z,100255
2018-07-19T13:13:15.737Z,100249
2018-07-19T13:14:21.202Z,100243
2018-07-19T13:15:41.247Z,100249
2018-07-19T13:16:46.109Z,100237
2018-07-19T13:17:51.317Z,100240
2018-07-19T13:18:56.991Z,100240
2018-07-19T13:20:02.217Z,100234
2018-07-19T13:21:07.112Z,100246
2018-07-19T13:22:13.073Z,100240
2018-07-19T13:23:18.463Z,100246
2018-07-19T13:24:23.651Z,100240
2018-07-19T13:25:43.458Z,100237
2018-07-19T13:26:48.603Z,100237
2018-07-19T13:27:54.433Z,100229
2018-07-19T13:28:59.891Z,100229
2018-07-19T13:30:05.333Z,100232
2018-07-19T13:31:10.239Z,100229
2018-07-19T13:32:15.398Z,100243
2018-07-19T13:33:20.824Z,100229
2018-07-19T13:34:25.864Z,100234
2018-07-19T13:35:30.446Z,100237
2018-07-19T13:36:36.671Z,100232
2018-07-19T13:37:42.026Z,100232
2018-07-19T13:38:47.462Z,100229
2018-07-19T13:39:52.880Z,100229
2018-07-19T13:40:58.358Z,100243
2018-07-19T13:42:03.262Z,100226
2018-07-19T13:43:08.813Z,100226
2018-07-19T13:44:14.276Z,100234
2018-07-19T13:45:19.478Z,100232